createdAt,value
2018-07-10T00:02:24.320Z,82.20
2018-07-10T00:07:19.488Z,83.90
2018-07-10T00:09:58.199Z,84.20
2018-07-10T00:12:26.444Z,83.60
2018-07-10T00:14:54.755Z,81.00
2018-07-10T00:17:23.153Z,80.10
2018-07-10T00:19:51.411Z,80.00
2018-07-10T00:22:19.663Z,78.40
2018-07-10T00:24:47.976Z,78.90
2018-07-10T00:27:16.323Z,79.40
2018-07-10T00:29:44.557Z,78.60
2018-07-10T00:32:12.777Z,78.30
2018-07-10T00:34:41.077Z,78.30
2018-07-10T00:37:09.321Z,78.20
2018-07-10T00:39:37.611Z,78.20
2018-07-10T00:42:05.838Z,77.10
2018-07-10T00:44:34.181Z,77.20
2018-07-10T00:47:02.532Z,76.90
2018-07-10T00:49:30.750Z,77.10
2018-07-10T00:51:59.015Z,77.10
2018-07-10T00:54:27.353Z,78.20
2018-07-10T00:56:55.607Z,78.70
2018-07-10T00:59:23.788Z,79.00
2018-07-10T01:01:51.987Z,79.60
2018-07-10T01:04:21.412Z,80.10
2018-07-10T01:06:49.670Z,80.00
2018-07-10T01:09:17.880Z,79.60
2018-07-10T01:11:46.405Z,79.50
2018-07-10T01:14:14.751Z,79.00
2018-07-10T01:16:43.028Z,78.10
2018-07-10T01:19:12.694Z,78.20
2018-07-10T01:21:41.972Z,77.90
2018-07-10T01:24:10.236Z,78.80
2018-07-10T01:26:40.188Z,77.40
2018-07-10T01:29:20.179Z,78.30
2018-07-10T01:31:49.901Z,78.70
2018-07-10T01:34:19.364Z,78.30
2018-07-10T01:36:47.617Z,78.70
2018-07-10T01:39:16.036Z,78.10
2018-07-10T01:41:44.245Z,79.20
2018-07-10T01:44:13.721Z,79.90
2018-07-10T01:46:41.938Z,80.50
2018-07-10T01:49:23.680Z,80.20
2018-07-10T01:51:51.973Z,80.20
2018-07-10T01:54:21.328Z,80.40
2018-07-10T01:56:49.885Z,80.50
2018-07-10T01:59:18.692Z,80.80
2018-07-10T02:01:46.946Z,81.30
2018-07-10T02:04:16.182Z,81.00
2018-07-10T02:06:44.407Z,80.50
2018-07-10T02:09:12.647Z,81.30
2018-07-10T02:11:40.951Z,80.50
2018-07-10T02:14:09.382Z,79.30
2018-07-10T02:16:37.597Z,79.50
2018-07-10T02:19:05.789Z,79.10
2018-07-10T02:21:34.156Z,79.00
2018-07-10T02:24:02.378Z,80.10
2018-07-10T02:26:30.715Z,80.00
2018-07-10T02:28:59.456Z,80.60
2018-07-10T02:31:27.688Z,80.10
2018-07-10T02:33:55.881Z,79.60
2018-07-10T02:36:27.720Z,80.30
2018-07-10T02:38:58.974Z,80.30
2018-07-10T02:41:27.206Z,79.80
2018-07-10T02:43:58.745Z,80.30
2018-07-10T02:46:28.034Z,80.00
2018-07-10T02:49:29.471Z,80.50
2018-07-10T02:52:00.032Z,80.10
2018-07-10T02:54:30.386Z,78.40
2018-07-10T02:56:58.733Z,77.40
2018-07-10T02:59:36.168Z,78.40
2018-07-10T03:02:05.643Z,79.10
2018-07-10T03:04:35.212Z,80.20
2018-07-10T03:07:03.797Z,80.60
2018-07-10T03:09:32.072Z,80.60
2018-07-10T03:12:01.034Z,80.70
2018-07-10T03:14:29.464Z,81.00
2018-07-10T03:16:58.625Z,81.20
2018-07-10T03:19:28.579Z,81.50
2018-07-10T03:21:56.956Z,81.20
2018-07-10T03:24:25.413Z,81.30
2018-07-10T03:26:54.098Z,81.40
2018-07-10T03:29:22.436Z,81.40
2018-07-10T03:31:50.844Z,81.30
2018-07-10T03:34:19.296Z,81.10
2018-07-10T03:36:47.629Z,80.80
2018-07-10T03:39:16.163Z,81.00
2018-07-10T03:41:44.576Z,80.70
2018-07-10T03:44:14.063Z,79.00
2018-07-10T03:46:43.041Z,79.10
2018-07-10T03:51:39.249Z,79.50
2018-07-10T03:54:07.563Z,78.70
2018-07-10T03:56:36.091Z,79.10
2018-07-10T03:59:04.328Z,78.90
2018-07-10T04:01:36.732Z,79.40
2018-07-10T04:04:05.463Z,78.90
2018-07-10T04:06:34.434Z,79.90
2018-07-10T04:09:04.619Z,79.30
2018-07-10T04:11:32.990Z,79.30
2018-07-10T04:14:01.209Z,79.70
2018-07-10T04:16:29.837Z,79.00
2018-07-10T04:18:58.044Z,79.30
2018-07-10T04:21:27.517Z,79.30
2018-07-10T04:24:04.163Z,79.50
2018-07-10T04:26:35.060Z,78.50
2018-07-10T04:30:11.571Z,77.90
2018-07-10T04:32:41.000Z,78.00
2018-07-10T04:35:11.592Z,78.00
2018-07-10T04:37:41.090Z,77.30
2018-07-10T04:40:09.808Z,76.40
2018-07-10T04:42:50.138Z,76.60
2018-07-10T04:45:20.462Z,76.10
2018-07-10T04:47:55.672Z,77.00
2018-07-10T04:50:40.246Z,76.10
2018-07-10T04:53:12.552Z,76.40
2018-07-10T04:55:41.700Z,76.20
2018-07-10T04:58:15.628Z,75.70
2018-07-10T05:00:46.223Z,75.90
2018-07-10T05:03:15.665Z,76.20
2018-07-10T05:05:44.545Z,75.70
2018-07-10T05:08:13.162Z,75.60
2018-07-10T05:10:41.355Z,75.80
2018-07-10T05:13:09.577Z,76.20
2018-07-10T05:15:38.991Z,76.20
2018-07-10T05:18:09.248Z,76.30
2018-07-10T05:20:38.665Z,76.40
2018-07-10T05:23:06.931Z,76.50
2018-07-10T05:25:37.483Z,76.50
2018-07-10T05:28:05.774Z,76.60
2018-07-10T05:30:35.707Z,76.90
2018-07-10T05:33:04.235Z,77.10
2018-07-10T05:35:32.540Z,77.30
2018-07-10T05:38:03.412Z,77.60
2018-07-10T05:40:31.688Z,77.80
2018-07-10T05:43:03.397Z,78.10
2018-07-10T05:45:31.729Z,78.30
2018-07-10T05:48:01.877Z,78.80
2018-07-10T05:50:30.731Z,79.30
2018-07-10T05:52:58.978Z,79.80
2018-07-10T05:55:30.666Z,80.20
2018-07-10T05:57:59.951Z,80.90
2018-07-10T06:00:28.801Z,80.70
2018-07-10T06:02:57.416Z,81.00
2018-07-10T06:05:26.486Z,80.90
2018-07-10T06:07:54.974Z,81.10
2018-07-10T06:10:24.524Z,81.30
2018-07-10T06:12:54.255Z,81.60
2018-07-10T06:15:22.930Z,82.10
2018-07-10T06:17:51.207Z,81.90
2018-07-10T06:20:19.547Z,82.50
2018-07-10T06:22:47.891Z,83.00
2018-07-10T06:25:16.741Z,83.20
2018-07-10T06:27:48.294Z,83.10
2018-07-10T06:30:16.571Z,83.00
2018-07-10T06:32:52.167Z,83.00
2018-07-10T06:35:28.555Z,83.10
2018-07-10T06:37:57.023Z,83.10
2018-07-10T06:40:25.428Z,83.60
2018-07-10T06:43:14.832Z,83.40
2018-07-10T06:45:43.428Z,84.00
2018-07-10T06:48:12.588Z,84.10
2018-07-10T06:50:40.786Z,84.20
2018-07-10T06:53:10.905Z,84.60
2018-07-10T06:55:51.752Z,85.20
2018-07-10T06:58:22.115Z,85.00
2018-07-10T07:00:51.551Z,85.40
2018-07-10T07:03:21.223Z,85.90
2018-07-10T07:05:49.551Z,86.20
2018-07-10T07:08:18.335Z,85.90
2018-07-10T07:13:14.633Z,87.10
2018-07-10T07:15:43.090Z,87.30
2018-07-10T07:18:11.310Z,87.50
2018-07-10T07:20:39.677Z,87.80
2018-07-10T07:23:07.916Z,88.40
2018-07-10T07:25:36.356Z,88.40
2018-07-10T07:28:04.853Z,88.80
2018-07-10T07:30:33.128Z,89.10
2018-07-10T07:33:01.385Z,89.60
2018-07-10T07:35:29.652Z,89.80
2018-07-10T07:37:57.853Z,90.30
2018-07-10T07:40:26.364Z,90.70
2018-07-10T07:42:54.562Z,91.00
2018-07-10T07:45:22.974Z,91.20
2018-07-10T07:47:51.180Z,91.30
2018-07-10T07:50:20.120Z,91.40
2018-07-10T07:52:48.374Z,91.40
2018-07-10T07:55:16.656Z,91.60
2018-07-10T07:57:44.918Z,91.70
2018-07-10T08:00:13.226Z,92.00
2018-07-10T08:02:41.565Z,92.20
2018-07-10T08:05:09.992Z,92.70
2018-07-10T08:07:38.262Z,93.40
2018-07-10T08:10:06.914Z,93.40
2018-07-10T08:12:35.105Z,94.10
2018-07-10T08:15:04.183Z,94.60
2018-07-10T08:17:38.985Z,95.10
2018-07-10T08:20:08.172Z,95.00
2018-07-10T08:22:36.621Z,95.20
2018-07-10T08:25:05.568Z,95.30
2018-07-10T08:27:36.159Z,95.70
2018-07-10T08:30:04.441Z,96.20
2018-07-10T08:32:32.684Z,96.30
2018-07-10T08:35:00.932Z,96.60
2018-07-10T08:37:29.142Z,96.80
2018-07-10T08:39:57.422Z,96.80
2018-07-10T08:42:25.660Z,97.00
2018-07-10T08:44:54.349Z,97.70
2018-07-10T08:47:22.634Z,97.70
2018-07-10T08:49:50.846Z,97.90
2018-07-10T08:52:19.794Z,97.70
2018-07-10T08:54:48.635Z,98.00
2018-07-10T08:57:16.932Z,98.00
2018-07-10T08:59:45.234Z,98.00
2018-07-10T09:02:13.527Z,97.90
2018-07-10T09:04:41.956Z,97.90
2018-07-10T09:07:10.199Z,97.80
2018-07-10T09:09:38.400Z,98.30
2018-07-10T09:12:06.639Z,98.40
2018-07-10T09:14:36.991Z,98.10
2018-07-10T09:17:05.369Z,97.90
2018-07-10T09:19:33.586Z,98.00
2018-07-10T09:22:08.193Z,97.80
2018-07-10T09:24:38.833Z,97.30
2018-07-10T09:27:09.037Z,97.50
2018-07-10T09:29:38.243Z,97.50
2018-07-10T09:32:07.835Z,96.50
2018-07-10T09:34:36.207Z,96.30
2018-07-10T09:37:08.599Z,96.00
2018-07-10T09:39:36.993Z,95.10
2018-07-10T09:42:05.556Z,94.70
2018-07-10T09:44:33.913Z,95.10
2018-07-10T09:47:02.181Z,94.80
2018-07-10T09:51:58.338Z,93.20
2018-07-10T09:54:26.626Z,93.30
2018-07-10T09:56:54.857Z,93.30
2018-07-10T09:59:23.096Z,93.20
2018-07-10T10:01:51.368Z,93.20
2018-07-10T10:04:19.782Z,93.10
2018-07-10T10:06:48.022Z,93.30
2018-07-10T10:09:16.602Z,93.60
2018-07-10T10:11:44.835Z,93.90
2018-07-10T10:14:13.220Z,94.80
2018-07-10T10:16:41.582Z,95.70
2018-07-10T10:19:10.086Z,96.00
2018-07-10T10:21:38.312Z,96.10
2018-07-10T10:24:07.588Z,96.20
2018-07-10T10:26:35.836Z,96.40
2018-07-10T10:29:04.049Z,95.80
2018-07-10T10:31:32.332Z,95.80
2018-07-10T10:34:00.694Z,95.90
2018-07-10T10:36:29.040Z,95.50
2018-07-10T10:38:57.271Z,95.30
2018-07-10T10:41:25.541Z,95.20
2018-07-10T10:43:53.824Z,95.30
2018-07-10T10:46:22.393Z,95.10
2018-07-10T10:51:20.469Z,95.50
2018-07-10T10:54:00.751Z,95.90
2018-07-10T10:56:29.014Z,95.80
2018-07-10T10:58:57.240Z,95.30
2018-07-10T11:01:25.467Z,95.30
2018-07-10T11:03:53.705Z,95.80
2018-07-10T11:06:21.992Z,96.00
2018-07-10T11:08:50.289Z,96.00
2018-07-10T11:11:18.563Z,96.40
2018-07-10T11:13:46.733Z,96.60
2018-07-10T11:16:15.096Z,97.20
2018-07-10T11:18:50.079Z,96.60
2018-07-10T11:21:31.424Z,96.50
2018-07-10T11:23:59.642Z,96.30
2018-07-10T11:26:34.561Z,95.60
2018-07-10T11:29:03.424Z,95.60
2018-07-10T11:31:31.709Z,95.30
2018-07-10T11:33:59.991Z,95.10
2018-07-10T11:38:59.512Z,94.80
2018-07-10T11:41:28.369Z,94.50
2018-07-10T11:43:56.574Z,94.00
2018-07-10T11:46:24.808Z,94.10
2018-07-10T11:48:53.030Z,94.50
2018-07-10T11:51:21.305Z,94.20
2018-07-10T11:53:49.595Z,94.50
2018-07-10T11:56:18.048Z,94.80
2018-07-10T11:58:46.248Z,94.80
2018-07-10T12:01:14.526Z,95.10
2018-07-10T12:03:42.738Z,95.20
2018-07-10T12:06:11.582Z,95.20
2018-07-10T12:08:40.067Z,95.10
2018-07-10T12:11:14.202Z,94.60
2018-07-10T12:13:42.641Z,94.30
2018-07-10T12:16:11.098Z,94.10
2018-07-10T12:21:07.945Z,94.00
2018-07-10T12:23:36.168Z,94.40
2018-07-10T12:26:05.787Z,94.60
2018-07-10T12:28:34.106Z,93.40
2018-07-10T12:31:02.585Z,94.00
2018-07-10T12:33:30.847Z,93.80
2018-07-10T12:35:59.279Z,93.70
2018-07-10T12:38:27.475Z,92.80
2018-07-10T12:40:55.722Z,92.50
2018-07-10T12:43:23.976Z,93.10
2018-07-10T12:48:20.393Z,93.70
2018-07-10T12:50:48.755Z,93.80
2018-07-10T12:53:16.951Z,91.60
2018-07-10T12:55:45.322Z,92.30
2018-07-10T12:58:13.573Z,91.70
2018-07-10T13:00:41.793Z,91.30
2018-07-10T13:03:10.917Z,91.90
2018-07-10T13:05:53.626Z,91.00
2018-07-10T13:08:21.976Z,91.50
2018-07-10T13:10:50.234Z,90.50
2018-07-10T13:13:18.410Z,88.70
2018-07-10T13:15:47.909Z,89.10
2018-07-10T13:18:19.685Z,89.10
2018-07-10T13:20:47.940Z,90.70
2018-07-10T13:25:50.956Z,89.50
2018-07-10T13:28:19.520Z,89.00
2018-07-10T13:30:47.810Z,87.00
2018-07-10T13:33:16.086Z,86.90
2018-07-10T13:35:44.493Z,85.70
2018-07-10T13:38:12.989Z,83.40
2018-07-10T13:40:41.344Z,84.30
2018-07-10T13:43:09.712Z,84.30
2018-07-10T13:45:37.969Z,82.50
2018-07-10T13:48:06.230Z,81.60
2018-07-10T13:50:34.877Z,81.00
2018-07-10T13:53:03.975Z,82.90
2018-07-10T13:55:32.854Z,81.80
2018-07-10T13:58:04.548Z,81.10
2018-07-10T14:00:35.278Z,80.00
2018-07-10T14:03:03.521Z,79.80
2018-07-10T14:05:32.008Z,77.20
2018-07-10T14:08:00.221Z,80.20
2018-07-10T14:10:28.568Z,79.90
2018-07-10T14:12:56.782Z,79.70
2018-07-10T14:15:25.074Z,80.00
2018-07-10T14:17:53.727Z,80.50
2018-07-10T14:20:21.990Z,80.20
2018-07-10T14:22:50.197Z,79.50
2018-07-10T14:25:18.601Z,79.60
2018-07-10T14:27:46.804Z,80.70
2018-07-10T14:30:15.156Z,81.30
2018-07-10T14:32:43.415Z,78.90
2018-07-10T14:35:12.704Z,79.70
2018-07-10T14:37:40.987Z,79.00
2018-07-10T14:40:09.254Z,78.70
2018-07-10T14:42:37.772Z,79.40
2018-07-10T14:45:06.965Z,78.30
2018-07-10T14:47:37.125Z,79.60
2018-07-10T14:50:05.410Z,78.20
2018-07-10T14:52:33.652Z,78.90
2018-07-10T14:55:02.045Z,77.80
2018-07-10T14:57:30.452Z,78.80
2018-07-10T14:59:58.664Z,78.30
2018-07-10T15:02:26.864Z,78.80
2018-07-10T15:04:55.376Z,78.30
2018-07-10T15:07:24.111Z,78.80
2018-07-10T15:09:52.742Z,79.80
2018-07-10T15:12:21.282Z,79.30
2018-07-10T15:14:49.937Z,79.40
2018-07-10T15:17:23.708Z,79.20
2018-07-10T15:19:52.011Z,78.90
2018-07-10T15:22:20.238Z,78.30
2018-07-10T15:24:48.616Z,77.10
2018-07-10T15:27:16.916Z,76.60
2018-07-10T15:29:45.144Z,77.20
2018-07-10T15:32:13.472Z,76.10
2018-07-10T15:34:42.764Z,76.40
2018-07-10T15:37:11.042Z,77.00
2018-07-10T15:39:39.315Z,76.00
2018-07-10T15:42:07.585Z,75.70
2018-07-10T15:44:35.868Z,76.50
2018-07-10T15:47:04.123Z,76.50
2018-07-10T15:49:32.370Z,77.00
2018-07-10T15:52:01.574Z,77.60
2018-07-10T15:54:31.592Z,78.00
2018-07-10T15:56:59.855Z,76.70
2018-07-10T15:59:28.096Z,76.70
2018-07-10T16:01:56.326Z,76.60
2018-07-10T16:04:24.747Z,74.80
2018-07-10T16:06:54.203Z,74.00
2018-07-10T16:09:22.906Z,73.20
2018-07-10T16:12:06.281Z,73.60
2018-07-10T16:14:36.815Z,74.20
2018-07-10T16:17:16.684Z,72.50
2018-07-10T16:19:46.314Z,73.30
2018-07-10T16:22:22.158Z,74.20
2018-07-10T16:24:52.465Z,73.80
2018-07-10T16:27:30.124Z,73.20
2018-07-10T16:29:58.940Z,72.80
2018-07-10T16:32:27.163Z,73.00
2018-07-10T16:34:55.494Z,73.10
2018-07-10T16:37:23.760Z,72.30
2018-07-10T16:39:52.214Z,72.30
2018-07-10T16:42:25.877Z,72.70
2018-07-10T16:44:54.757Z,70.50
2018-07-10T16:47:30.076Z,71.80
2018-07-10T16:50:00.584Z,71.60
2018-07-10T16:52:46.611Z,69.80
2018-07-10T16:55:15.174Z,70.10
2018-07-10T16:57:43.653Z,69.50
2018-07-10T17:00:11.916Z,69.50
2018-07-10T17:02:40.260Z,69.00
2018-07-10T17:05:08.647Z,70.00
2018-07-10T17:07:36.861Z,69.60
2018-07-10T17:10:05.167Z,68.40
2018-07-10T17:12:33.470Z,69.30
2018-07-10T17:15:02.041Z,69.70
2018-07-10T17:17:30.835Z,67.40
2018-07-10T17:19:59.275Z,67.40
2018-07-10T17:22:27.609Z,67.40
2018-07-10T17:24:56.598Z,66.70
2018-07-10T17:27:32.509Z,67.10
2018-07-10T17:30:01.936Z,66.50
2018-07-10T17:32:30.473Z,68.20
2018-07-10T17:34:59.289Z,68.00
2018-07-10T17:37:27.815Z,67.80
2018-07-10T17:39:59.693Z,67.30
2018-07-10T17:42:28.002Z,66.80
2018-07-10T17:44:56.359Z,67.70
2018-07-10T17:47:24.627Z,67.60
2018-07-10T17:49:52.876Z,67.00
2018-07-10T17:52:21.199Z,67.60
2018-07-10T17:54:49.569Z,68.30
2018-07-10T17:57:17.904Z,68.60
2018-07-10T17:59:46.275Z,68.90
2018-07-10T18:02:14.581Z,69.20
2018-07-10T18:04:44.813Z,69.20
2018-07-10T18:07:13.140Z,70.40
2018-07-10T18:09:41.957Z,71.00
2018-07-10T18:12:10.498Z,68.80
2018-07-10T18:14:38.890Z,67.00
2018-07-10T18:17:07.192Z,65.50
2018-07-10T18:19:35.492Z,67.00
2018-07-10T18:22:03.829Z,67.90
2018-07-10T18:24:32.252Z,68.60
2018-07-10T18:27:00.492Z,68.70
2018-07-10T18:29:28.724Z,68.20
2018-07-10T18:31:57.069Z,68.90
2018-07-10T18:34:25.606Z,70.40
2018-07-10T18:36:54.381Z,70.30
2018-07-10T18:39:22.654Z,68.80
2018-07-10T18:41:50.911Z,69.10
2018-07-10T18:44:19.228Z,69.00
2018-07-10T18:46:47.484Z,68.90
2018-07-10T18:49:15.780Z,68.40
2018-07-10T18:51:44.097Z,68.80
2018-07-10T18:54:12.547Z,68.60
2018-07-10T18:56:40.709Z,69.20
2018-07-10T18:59:12.061Z,69.60
2018-07-10T19:02:04.621Z,69.50
2018-07-10T19:04:37.872Z,70.60
2018-07-10T19:09:35.411Z,72.10
2018-07-10T19:12:06.166Z,71.40
2018-07-10T19:15:05.355Z,70.30
2018-07-10T19:17:34.042Z,69.90
2018-07-10T19:20:04.920Z,69.40
2018-07-10T19:22:41.881Z,69.20
2018-07-10T19:25:12.145Z,69.80
2018-07-10T19:27:40.381Z,69.90
2018-07-10T19:30:09.746Z,69.60
2018-07-10T19:32:38.711Z,69.80
2018-07-10T19:35:07.495Z,69.80
2018-07-10T19:37:36.938Z,70.30
2018-07-10T19:40:05.540Z,70.40
2018-07-10T19:42:34.969Z,70.90
2018-07-10T19:45:04.532Z,71.10
2018-07-10T19:47:33.077Z,71.20
2018-07-10T19:50:08.361Z,72.00
2018-07-10T19:52:36.628Z,72.70
2018-07-10T19:55:04.964Z,72.90
2018-07-10T19:58:44.794Z,73.30
2018-07-10T20:01:18.844Z,74.10
2018-07-10T20:03:59.448Z,74.90
2018-07-10T20:06:32.886Z,75.30
2018-07-10T20:09:06.768Z,75.40
2018-07-10T20:11:39.980Z,75.30
2018-07-10T20:14:09.379Z,75.50
2018-07-10T20:16:43.346Z,76.60
2018-07-10T20:19:25.433Z,75.90
2018-07-10T20:22:08.025Z,76.40
2018-07-10T20:24:41.560Z,77.00
2018-07-10T20:27:17.205Z,77.40
2018-07-10T20:30:00.810Z,78.10
2018-07-10T20:32:37.388Z,78.70
2018-07-10T20:35:15.103Z,79.10
2018-07-10T20:37:44.446Z,79.40
2018-07-10T20:40:15.598Z,79.80
2018-07-10T20:42:44.620Z,80.00
2018-07-10T20:45:13.040Z,80.10
2018-07-10T20:47:49.372Z,80.00
2018-07-10T20:50:27.214Z,80.20
2018-07-10T20:53:01.556Z,80.50
2018-07-10T20:55:40.124Z,80.70
2018-07-10T20:58:11.166Z,81.10
2018-07-10T21:00:41.570Z,81.40
2018-07-10T21:04:22.612Z,81.50
2018-07-10T21:06:57.031Z,82.20
2018-07-10T21:09:44.319Z,81.80
2018-07-10T21:12:16.941Z,81.90
2018-07-10T21:15:21.161Z,82.10
2018-07-10T21:18:57.069Z,82.20
2018-07-10T21:21:35.947Z,82.30
2018-07-10T21:24:15.274Z,82.50
2018-07-10T21:26:53.999Z,82.40
2018-07-10T21:29:30.401Z,81.80
2018-07-10T21:32:04.670Z,82.00
2018-07-10T21:34:42.760Z,82.30
2018-07-10T21:37:20.920Z,82.30
2018-07-10T21:40:19.566Z,82.30
2018-07-10T21:43:57.756Z,82.60
2018-07-10T21:46:37.424Z,82.60
2018-07-10T21:49:11.960Z,82.80
2018-07-10T21:51:43.803Z,83.10
2018-07-10T21:54:13.251Z,83.30
2018-07-10T21:56:41.739Z,83.60
2018-07-10T21:59:11.299Z,83.80
2018-07-10T22:01:49.210Z,84.10
2018-07-10T22:04:21.716Z,84.80
2018-07-10T22:06:52.090Z,85.80
2018-07-10T22:09:20.696Z,86.30
2018-07-10T22:11:49.549Z,86.60
2018-07-10T22:14:18.331Z,87.30
2018-07-10T22:16:46.560Z,87.80
2018-07-10T22:19:18.325Z,88.30
2018-07-10T22:21:46.562Z,88.60
2018-07-10T22:24:15.119Z,88.60
2018-07-10T22:26:43.414Z,88.70
2018-07-10T22:29:11.968Z,88.80
2018-07-10T22:34:14.113Z,88.40
2018-07-10T22:36:42.410Z,88.60
2018-07-10T22:39:10.646Z,88.70
2018-07-10T22:41:39.155Z,88.60
2018-07-10T22:44:07.403Z,88.60
2018-07-10T22:46:35.659Z,89.10
2018-07-10T22:49:07.020Z,89.40
2018-07-10T22:51:35.252Z,89.80
2018-07-10T22:54:03.987Z,90.10
2018-07-10T22:56:33.740Z,90.40
2018-07-10T22:59:02.265Z,90.50
2018-07-10T23:01:31.450Z,90.70
2018-07-10T23:03:59.709Z,90.80
2018-07-10T23:06:27.984Z,90.90
2018-07-10T23:08:56.226Z,91.10
2018-07-10T23:11:24.510Z,91.30
2018-07-10T23:13:53.863Z,91.30
2018-07-10T23:16:22.183Z,91.20
2018-07-10T23:18:50.375Z,91.10
2018-07-10T23:23:48.296Z,90.90
2018-07-10T23:26:19.289Z,90.80
2018-07-10T23:28:51.654Z,90.80
2018-07-10T23:31:20.027Z,90.80
2018-07-10T23:33:52.561Z,90.80
2018-07-10T23:36:20.780Z,90.60
2018-07-10T23:38:55.323Z,90.70
2018-07-10T23:41:25.939Z,90.70
2018-07-10T23:46:32.780Z,91.00
2018-07-10T23:49:08.549Z,91.10
2018-07-10T23:51:48.231Z,91.30
2018-07-10T23:54:16.512Z,91.40
2018-07-10T23:56:44.768Z,91.70
2018-07-10T23:59:12.958Z,91.80
